Time;durP1;ratioP1;P1;durP2;ratioP2;P2;SDS_P1;SDS_P2;PMS_P1;PMS_P2;Temp;Humidity;BMP_temperature;BMP_pressure;BME280_temperature;BME280_humidity;BME280_pressure;Samples;Min_cycle;Max_cycle;Signal;HPM_P1;HPM_P2
2021/07/19 00:02:02;;;;;;;;;6.75;5.25;;;;;23.58;60.77;101811.34;4996903;28;45376;-72
2021/07/19 00:04:30;;;;;;;;;6.00;6.00;;;;;23.54;61.10;101810.75;4996138;28;46401;-72
2021/07/19 00:06:55;;;;;;;;;7.50;7.00;;;;;23.52;61.14;101820.75;4997308;28;45622;-72
2021/07/19 00:09:22;;;;;;;;;7.00;5.25;;;;;23.49;61.02;101812.09;4997700;28;45548;-72
2021/07/19 00:11:48;;;;;;;;;8.50;7.50;;;;;23.46;61.57;101809.69;4997548;28;45675;-72
2021/07/19 00:14:13;;;;;;;;;5.00;5.00;;;;;23.41;61.20;101804.69;4996758;28;45471;-72
2021/07/19 00:16:39;;;;;;;;;6.75;5.50;;;;;23.37;61.62;101814.78;4996454;28;45471;-72
2021/07/19 00:19:04;;;;;;;;;8.75;7.75;;;;;23.37;61.20;101816.63;4996223;28;45435;-72
2021/07/19 00:21:30;;;;;;;;;8.75;6.00;;;;;23.29;61.85;101808.34;4997292;28;45420;-71
2021/07/19 00:23:55;;;;;;;;;7.00;5.25;;;;;23.28;61.65;101814.66;4996863;28;47325;-73
2021/07/19 00:26:21;;;;;;;;;7.25;7.25;;;;;23.27;62.01;101812.97;4996701;28;45294;-72
2021/07/19 00:28:48;;;;;;;;;6.75;5.25;;;;;23.24;62.55;101821.28;4996711;28;45488;-72
2021/07/19 00:31:13;;;;;;;;;10.00;6.75;;;;;23.16;62.25;101814.66;4995855;28;45558;-72
2021/07/19 00:33:39;;;;;;;;;8.50;7.50;;;;;23.17;61.88;101812.84;4995238;28;46608;-72
2021/07/19 00:36:05;;;;;;;;;6.50;6.00;;;;;23.12;62.22;101815.03;4996418;28;45618;-72
2021/07/19 00:38:31;;;;;;;;;5.75;5.50;;;;;23.08;62.32;101811.75;4996773;28;45361;-73
2021/07/19 00:40:56;;;;;;;;;7.75;7.00;;;;;22.97;62.85;101805.50;4996469;28;45572;-73
2021/07/19 00:43:22;;;;;;;;;9.00;7.00;;;;;23.02;62.41;101811.34;4996649;28;46240;-70
2021/07/19 00:45:47;;;;;;;;;7.00;6.50;;;;;22.96;63.05;101810.00;4995596;28;45590;-72
2021/07/19 00:48:13;;;;;;;;;8.75;6.75;;;;;22.89;62.89;101800.75;4995954;28;45458;-71
2021/07/19 00:50:40;;;;;;;;;8.50;7.25;;;;;22.87;62.87;101805.38;4997445;28;45611;-71
2021/07/19 00:53:07;;;;;;;;;8.00;8.00;;;;;22.85;63.08;101807.28;4996187;28;46467;-71
2021/07/19 00:55:39;;;;;;;;;8.00;7.00;;;;;22.79;63.39;101802.41;4996323;28;45617;-71
2021/07/19 00:58:07;;;;;;;;;9.75;7.75;;;;;22.80;63.69;101806.78;4996465;28;45447;-71
2021/07/19 01:00:34;;;;;;;;;7.75;7.75;;;;;22.77;63.46;101817.78;4996513;28;45420;-71
2021/07/19 01:03:04;;;;;;;;;9.25;6.50;;;;;22.75;64.14;101817.88;4996594;28;46982;-71
2021/07/19 01:05:30;;;;;;;;;8.25;6.00;;;;;22.73;64.07;101816.28;4995503;28;45527;-72
2021/07/19 01:07:57;;;;;;;;;10.00;6.50;;;;;22.71;63.41;101811.06;4995741;28;45513;-71
2021/07/19 01:10:24;;;;;;;;;4.50;4.50;;;;;22.65;63.83;101809.69;4996373;28;45244;-71
2021/07/19 01:12:53;;;;;;;;;7.00;6.75;;;;;22.61;63.75;101807.38;4996008;28;46653;-71
2021/07/19 01:15:21;;;;;;;;;8.75;7.75;;;;;22.58;64.08;101805.78;4995642;28;45544;-71
2021/07/19 01:17:46;;;;;;;;;6.00;6.00;;;;;22.54;64.42;101806.13;4996481;28;45531;-71
2021/07/19 01:20:12;;;;;;;;;6.75;6.00;;;;;22.54;64.12;101801.63;4995461;28;45412;-71
2021/07/19 01:22:46;;;;;;;;;7.00;6.00;;;;;22.53;64.60;101799.06;4996071;28;46568;-71
2021/07/19 01:25:42;;;;;;;;;6.50;6.50;;;;;22.50;64.44;101810.00;4995467;28;45631;-71
2021/07/19 01:28:07;;;;;;;;;7.00;7.00;;;;;22.47;64.79;101805.75;4985432;28;45432;-71
2021/07/19 01:30:38;;;;;;;;;7.00;5.00;;;;;22.46;64.97;101809.41;4995701;28;45358;-71
2021/07/19 01:33:05;;;;;;;;;9.25;8.50;;;;;22.30;64.70;101782.06;4996206;28;45525;-71
2021/07/19 01:35:33;;;;;;;;;6.25;5.75;;;;;22.39;64.72;101802.78;4995795;28;45388;-71
2021/07/19 01:38:00;;;;;;;;;9.25;7.00;;;;;22.33;65.13;101790.72;4995702;28;45341;-71
2021/07/19 01:40:26;;;;;;;;;5.00;5.00;;;;;22.33;65.11;101792.53;4995753;28;45509;-71
2021/07/19 01:42:52;;;;;;;;;8.00;7.50;;;;;22.31;65.50;101794.50;4992699;28;47071;-71
2021/07/19 01:45:17;;;;;;;;;7.25;7.25;;;;;22.30;65.15;101796.31;4993829;28;45890;-71
2021/07/19 01:47:44;;;;;;;;;8.25;8.00;;;;;22.25;65.70;101787.78;4996376;28;45395;-71
2021/07/19 01:50:10;;;;;;;;;8.00;6.50;;;;;22.25;65.09;101798.50;4995694;28;45494;-71
2021/07/19 01:52:37;;;;;;;;;8.75;7.25;;;;;22.23;65.95;101795.06;4995359;28;46311;-71
2021/07/19 01:55:04;;;;;;;;;11.00;8.25;;;;;22.22;65.91;101792.50;4995811;28;45466;-71
2021/07/19 01:57:30;;;;;;;;;7.00;7.00;;;;;22.17;65.26;101789.31;4995039;28;45420;-71
2021/07/19 01:59:58;;;;;;;;;6.00;6.00;;;;;22.14;65.80;101785.91;4996013;28;45480;-71
2021/07/19 02:02:25;;;;;;;;;7.25;7.25;;;;;22.10;65.85;101796.94;4995050;28;45432;-71
2021/07/19 02:04:51;;;;;;;;;11.00;9.00;;;;;22.08;66.33;101790.81;4995450;28;45475;-71
2021/07/19 02:07:19;;;;;;;;;9.75;8.75;;;;;22.07;66.36;101791.78;4994696;28;45385;-72
2021/07/19 02:09:47;;;;;;;;;8.00;8.00;;;;;22.05;66.01;101794.59;4995307;28;45426;-71
2021/07/19 02:12:13;;;;;;;;;12.75;10.75;;;;;22.00;66.52;101787.88;4995248;28;46910;-71
2021/07/19 02:14:40;;;;;;;;;10.00;7.00;;;;;21.95;66.75;101777.50;4995235;28;45451;-72
2021/07/19 02:17:08;;;;;;;;;10.75;8.75;;;;;21.94;66.46;101775.81;4995402;28;45525;-71
2021/07/19 02:19:36;;;;;;;;;10.50;9.25;;;;;21.95;66.43;101787.34;4995051;28;45456;-71
2021/07/19 02:22:03;;;;;;;;;10.25;8.50;;;;;21.90;67.00;101787.69;4995105;28;46686;-71
2021/07/19 02:24:29;;;;;;;;;7.00;7.00;;;;;21.87;67.04;101798.63;4995114;28;45774;-71
2021/07/19 02:26:55;;;;;;;;;10.25;8.00;;;;;21.82;66.66;101790.97;4994483;28;45301;-71
2021/07/19 02:29:21;;;;;;;;;9.00;8.00;;;;;21.82;66.66;101792.75;4995127;28;45451;-72
2021/07/19 02:31:50;;;;;;;;;10.25;10.25;;;;;21.77;67.36;101792.22;4994663;28;45588;-71
2021/07/19 02:34:20;;;;;;;;;10.00;8.25;;;;;21.75;67.56;101791.50;4994831;28;45921;-71
2021/07/19 02:36:47;;;;;;;;;13.75;10.50;;;;;21.74;66.67;101792.47;4995132;28;45241;-71
2021/07/19 02:39:14;;;;;;;;;10.00;7.50;;;;;21.73;66.93;101798.78;4995357;28;45329;-71
2021/07/19 02:41:42;;;;;;;;;9.50;9.00;;;;;21.70;67.88;101807.88;4995084;28;47415;-71
2021/07/19 02:44:08;;;;;;;;;10.50;8.50;;;;;21.67;67.66;101808.13;4994710;28;45578;-72
2021/07/19 02:46:35;;;;;;;;;8.25;8.25;;;;;21.62;68.31;101803.09;4994464;28;45455;-71
2021/07/19 02:49:02;;;;;;;;;9.25;7.50;;;;;21.61;67.68;101789.81;4994479;28;45519;-72
2021/07/19 02:51:29;;;;;;;;;10.00;8.25;;;;;21.60;68.28;101807.69;4994259;28;46265;-71
2021/07/19 02:53:57;;;;;;;;;7.75;7.75;;;;;21.56;68.04;101800.88;4995442;28;45465;-71
2021/07/19 02:56:23;;;;;;;;;10.00;9.00;;;;;21.57;68.34;101805.25;4993467;28;45809;-72
2021/07/19 02:58:49;;;;;;;;;9.75;7.75;;;;;21.54;68.34;101804.63;4994064;28;45428;-71
2021/07/19 03:01:18;;;;;;;;;9.25;7.00;;;;;21.50;68.85;101795.09;4994138;28;45482;-71
2021/07/19 03:03:46;;;;;;;;;10.00;10.00;;;;;21.53;68.52;101800.25;4994230;28;45489;-71
2021/07/19 03:06:18;;;;;;;;;9.75;9.00;;;;;21.51;68.49;101799.50;4993154;28;45275;-71
2021/07/19 03:08:45;;;;;;;;;8.75;8.00;;;;;21.48;68.52;101800.56;4995160;28;45314;-71
2021/07/19 03:11:25;;;;;;;;;10.75;9.50;;;;;21.46;68.25;101794.50;4997147;28;45450;-71
2021/07/19 03:13:55;;;;;;;;;11.00;8.25;;;;;21.44;68.21;101790.19;4997984;28;45690;-71
2021/07/19 03:16:22;;;;;;;;;8.25;7.50;;;;;21.40;68.51;101788.69;4997721;28;45499;-71
2021/07/19 03:18:48;;;;;;;;;15.00;12.50;;;;;21.39;68.74;101793.19;4997797;28;45496;-72
2021/07/19 03:21:16;;;;;;;;;11.25;8.50;;;;;21.38;69.25;101786.16;4997854;28;47062;-71
2021/07/19 03:23:44;;;;;;;;;10.00;9.00;;;;;21.34;69.36;101782.81;4998093;28;45334;-71
2021/07/19 03:26:10;;;;;;;;;12.00;9.75;;;;;21.32;69.10;101786.59;4995672;28;45530;-72
2021/07/19 03:28:37;;;;;;;;;8.50;8.00;;;;;21.30;68.95;101793.88;4997381;28;45593;-71
2021/07/19 03:31:04;;;;;;;;;11.00;8.50;;;;;21.29;69.00;101792.97;4997372;28;47335;-71
2021/07/19 03:33:30;;;;;;;;;10.25;9.50;;;;;21.28;69.29;101791.25;4997639;28;45365;-71
2021/07/19 03:35:56;;;;;;;;;10.25;10.00;;;;;21.25;69.38;101793.31;4998305;28;45435;-71
2021/07/19 03:38:22;;;;;;;;;13.50;11.00;;;;;21.24;69.13;101784.41;4997318;28;45585;-71
2021/07/19 03:40:49;;;;;;;;;14.75;10.75;;;;;21.21;68.99;101784.66;4997006;28;46260;-71
2021/07/19 03:43:15;;;;;;;;;10.75;9.75;;;;;21.18;69.17;101784.84;4997474;28;45699;-71
2021/07/19 03:45:45;;;;;;;;;8.25;7.25;;;;;21.16;69.74;101780.59;4996251;28;45364;-71
2021/07/19 03:48:11;;;;;;;;;10.50;10.00;;;;;21.13;69.63;101770.09;4997804;28;45299;-71
2021/07/19 03:50:37;;;;;;;;;12.25;11.00;;;;;21.10;69.88;101772.06;4997651;28;46156;-71
2021/07/19 03:53:03;;;;;;;;;14.50;12.00;;;;;21.10;69.72;101777.41;4996778;28;45718;-71
2021/07/19 03:55:28;;;;;;;;;11.75;10.25;;;;;21.08;69.15;101778.44;4997001;28;45625;-71
2021/07/19 03:57:54;;;;;;;;;9.50;8.50;;;;;21.05;70.18;101770.66;4997175;28;45471;-71
2021/07/19 04:00:20;;;;;;;;;12.75;9.25;;;;;21.02;69.92;101779.75;4997250;28;46621;-72
2021/07/19 04:02:51;;;;;;;;;9.25;8.25;;;;;20.99;69.85;101771.09;4997739;28;45460;-71
2021/07/19 04:05:18;;;;;;;;;10.25;10.25;;;;;20.96;70.27;101773.97;4997344;28;45341;-72
2021/07/19 04:07:46;;;;;;;;;13.25;11.50;;;;;20.90;70.43;101769.06;4996405;28;45613;-71
2021/07/19 04:10:14;;;;;;;;;13.00;11.75;;;;;20.93;70.27;101780.38;4996434;28;46752;-71
2021/07/19 04:12:45;;;;;;;;;11.00;10.25;;;;;20.91;69.94;101776.13;4997163;28;45645;-71
2021/07/19 04:15:10;;;;;;;;;12.00;8.50;;;;;20.90;70.03;101793.13;4996985;28;45436;-71
2021/07/19 04:17:36;;;;;;;;;12.00;12.00;;;;;20.80;70.66;101776.88;4997623;28;45479;-71
2021/07/19 04:20:04;;;;;;;;;10.25;9.50;;;;;20.85;70.95;101783.59;4996648;28;45408;-71
2021/07/19 04:22:30;;;;;;;;;9.50;9.50;;;;;20.75;70.02;101761.16;4996612;28;45808;-71
2021/07/19 04:24:56;;;;;;;;;9.75;8.25;;;;;20.85;70.95;101774.72;4996124;28;46451;-71
2021/07/19 04:27:22;;;;;;;;;11.50;10.75;;;;;20.77;70.33;101758.38;4981138;28;45398;-71
2021/07/19 04:29:53;;;;;;;;;10.50;8.50;;;;;20.92;70.72;101773.34;4996312;28;46459;-71
2021/07/19 04:32:20;;;;;;;;;13.00;9.75;;;;;20.93;70.23;101772.38;4994961;28;45313;-71
2021/07/19 04:34:46;;;;;;;;;11.00;9.25;;;;;20.93;71.03;101775.03;4996776;28;45323;-71
2021/07/19 04:37:12;;;;;;;;;13.00;10.00;;;;;20.94;70.81;101771.44;4996704;28;45408;-71
2021/07/19 04:39:38;;;;;;;;;12.00;8.00;;;;;20.96;70.72;101773.97;4996104;28;46154;-71
2021/07/19 04:42:05;;;;;;;;;11.50;10.00;;;;;20.98;70.87;101774.72;4997401;28;45515;-71
2021/07/19 04:44:31;;;;;;;;;10.75;10.25;;;;;20.98;70.41;101775.56;4996490;28;45464;-71
2021/07/19 04:46:56;;;;;;;;;12.25;10.50;;;;;21.00;70.57;101771.00;4996486;28;45880;-71
2021/07/19 04:49:22;;;;;;;;;13.50;11.50;;;;;20.99;70.70;101771.97;4996537;28;45588;-71
2021/07/19 04:51:47;;;;;;;;;15.50;12.50;;;;;21.04;70.84;101772.50;4996305;28;45541;-71
2021/07/19 04:54:21;;;;;;;;;10.75;10.25;;;;;21.09;70.69;101773.03;4996392;28;45460;-71
2021/07/19 04:56:48;;;;;;;;;16.50;12.50;;;;;21.13;69.94;101775.47;4980106;28;45528;-71
2021/07/19 04:59:16;;;;;;;;;12.75;10.00;;;;;21.15;70.75;101774.41;4994257;28;46641;-71
2021/07/19 05:01:43;;;;;;;;;13.50;10.00;;;;;21.19;70.54;101775.88;4996309;28;45752;-71
2021/07/19 05:04:10;;;;;;;;;12.25;9.25;;;;;21.24;70.49;101778.22;4996458;28;45514;-71
2021/07/19 05:06:37;;;;;;;;;10.25;9.75;;;;;21.29;70.82;101776.06;4996230;28;45419;-71
2021/07/19 05:09:03;;;;;;;;;15.50;11.25;;;;;21.34;70.54;101784.66;4996664;28;46330;-73
2021/07/19 05:11:29;;;;;;;;;12.75;11.50;;;;;21.41;70.38;101788.63;4995890;28;45459;-71
2021/07/19 05:13:57;;;;;;;;;12.00;11.00;;;;;21.48;70.04;101787.19;4995944;28;45544;-71
2021/07/19 05:16:23;;;;;;;;;11.50;9.00;;;;;21.50;69.97;101787.94;4995948;28;45980;-71
2021/07/19 05:18:49;;;;;;;;;11.75;10.75;;;;;21.57;70.57;101793.72;4995921;28;46665;-71
2021/07/19 05:21:15;;;;;;;;;12.00;11.50;;;;;21.63;69.64;101794.09;4996124;28;45947;-71
2021/07/19 05:23:44;;;;;;;;;11.25;10.50;;;;;21.68;69.35;101787.56;4996222;28;45474;-72
2021/07/19 05:26:09;;;;;;;;;14.75;11.50;;;;;21.71;69.34;101785.50;4995369;28;45463;-71
2021/07/19 05:28:35;;;;;;;;;14.25;9.00;;;;;21.78;69.24;101784.13;4995805;28;45459;-71
2021/07/19 05:31:00;;;;;;;;;12.50;10.00;;;;;21.84;69.59;101794.34;4996094;28;45408;-71
2021/07/19 05:33:25;;;;;;;;;10.00;10.00;;;;;21.87;69.37;101787.91;4994765;28;45467;-71
2021/07/19 05:35:52;;;;;;;;;16.25;13.25;;;;;21.93;69.32;101787.47;4996511;28;45340;-71
2021/07/19 05:38:19;;;;;;;;;14.25;11.25;;;;;21.98;68.79;101785.31;4995173;28;46496;-71
2021/07/19 05:40:45;;;;;;;;;15.50;13.00;;;;;22.07;68.63;101791.78;4995685;28;45537;-71
2021/07/19 05:43:10;;;;;;;;;16.50;14.00;;;;;22.05;69.29;101775.84;4995565;28;45444;-71
2021/07/19 05:45:37;;;;;;;;;13.00;13.00;;;;;22.19;68.94;101790.06;4995840;28;45347;-71
2021/07/19 05:48:04;;;;;;;;;12.75;12.50;;;;;22.26;68.25;101793.97;4996103;28;46315;-71
2021/07/19 05:50:29;;;;;;;;;12.00;10.75;;;;;22.40;68.24;101796.47;4995454;28;45373;-71
2021/07/19 05:52:58;;;;;;;;;18.00;12.75;;;;;22.62;68.38;101790.31;4994723;28;45480;-71
2021/07/19 05:55:25;;;;;;;;;13.50;11.00;;;;;23.30;67.92;101797.50;4994843;28;45598;-72
2021/07/19 05:57:50;;;;;;;;;13.00;10.25;;;;;24.61;67.10;101788.47;4992878;28;47202;-72
2021/07/19 06:00:18;;;;;;;;;12.75;11.00;;;;;26.03;64.16;101785.75;4995068;28;45553;-72
2021/07/19 06:02:43;;;;;;;;;11.50;11.50;;;;;27.27;60.99;101777.63;4995235;28;45337;-72
2021/07/19 06:05:11;;;;;;;;;10.75;10.75;;;;;28.19;59.78;101779.31;4994450;28;45544;-72
2021/07/19 06:07:36;;;;;;;;;15.00;11.75;;;;;28.98;57.03;101785.69;4994443;28;46695;-72
2021/07/19 06:10:07;;;;;;;;;10.00;8.50;;;;;28.88;55.79;101793.88;4995353;28;45291;-71
2021/07/19 06:12:33;;;;;;;;;12.75;12.00;;;;;28.71;55.62;101798.34;4979171;28;45453;-72
2021/07/19 06:14:58;;;;;;;;;13.00;11.00;;;;;28.46;55.26;101794.59;4991647;28;45368;-72
2021/07/19 06:17:23;;;;;;;;;13.25;10.75;;;;;28.13;55.84;101796.13;4994758;28;46744;-73
2021/07/19 06:19:49;;;;;;;;;12.75;12.25;;;;;27.67;55.31;101789.03;4994772;28;45450;-70
2021/07/19 06:22:16;;;;;;;;;11.25;10.00;;;;;27.15;55.75;101786.06;4994723;28;45381;-73
2021/07/19 06:24:42;;;;;;;;;11.50;11.00;;;;;26.64;56.42;101782.78;4994495;28;45492;-73
2021/07/19 06:27:07;;;;;;;;;10.75;10.00;;;;;26.14;57.34;101776.69;4994150;28;46692;-70
2021/07/19 06:29:33;;;;;;;;;11.00;11.00;;;;;25.91;57.32;101787.75;4992675;28;47965;-73
2021/07/19 06:32:00;;;;;;;;;10.75;10.50;;;;;25.69;57.76;101804.13;4994524;28;46070;-73
2021/07/19 06:34:26;;;;;;;;;10.50;8.00;;;;;25.37;58.43;101785.47;4993950;28;45620;-73
2021/07/19 06:36:51;;;;;;;;;13.25;10.75;;;;;25.22;58.76;101802.00;4989696;28;45573;-70
2021/07/19 06:39:16;;;;;;;;;10.25;8.75;;;;;25.12;59.48;101802.94;4992925;28;46889;-70
2021/07/19 06:41:42;;;;;;;;;13.00;11.00;;;;;24.99;59.23;101793.19;4994842;28;45389;-71
2021/07/19 06:44:07;;;;;;;;;11.25;9.00;;;;;24.86;59.92;101789.91;4992356;28;45305;-71
2021/07/19 06:46:32;;;;;;;;;11.25;10.25;;;;;24.86;60.11;101800.66;4994031;28;46473;-71
2021/07/19 06:48:58;;;;;;;;;12.00;10.75;;;;;24.79;60.03;101798.59;4994294;28;45478;-71
2021/07/19 06:51:23;;;;;;;;;16.00;12.00;;;;;24.72;60.00;101803.66;4998165;28;47762;-72
2021/07/19 06:53:48;;;;;;;;;14.25;12.25;;;;;24.67;60.22;101797.84;4996553;28;45479;-72
2021/07/19 06:56:14;;;;;;;;;15.25;11.50;;;;;24.65;60.54;101799.81;4995568;28;49642;-72
2021/07/19 06:58:40;;;;;;;;;13.00;11.75;;;;;24.65;60.77;101789.91;4997195;28;45472;-72
2021/07/19 07:01:06;;;;;;;;;10.50;9.25;;;;;24.70;60.71;101797.59;4996483;28;45503;-72
2021/07/19 07:03:31;;;;;;;;;14.00;10.50;;;;;24.61;60.60;101788.47;4993082;28;45451;-72
2021/07/19 07:05:57;;;;;;;;;16.75;14.75;;;;;24.74;60.88;101785.56;4993852;28;45451;-70
2021/07/19 07:08:22;;;;;;;;;10.25;10.25;;;;;24.76;60.79;101785.44;4995023;28;46707;-71
2021/07/19 07:10:49;;;;;;;;;14.00;11.50;;;;;24.81;60.76;101777.84;4995142;28;45404;-71
2021/07/19 07:13:14;;;;;;;;;13.50;10.50;;;;;24.97;60.90;101792.50;4995339;28;45772;-71
2021/07/19 07:15:40;;;;;;;;;15.00;12.00;;;;;25.25;60.46;101785.56;4993078;28;47639;-71
2021/07/19 07:18:08;;;;;;;;;12.75;10.00;;;;;25.46;59.90;101787.34;4990523;28;45559;-71
2021/07/19 07:20:37;;;;;;;;;14.00;10.75;;;;;25.46;59.73;101787.34;4993645;28;45459;-71
2021/07/19 07:23:03;;;;;;;;;12.00;11.00;;;;;25.52;59.64;101792.16;4992597;28;45417;-71
2021/07/19 07:25:29;;;;;;;;;13.25;13.00;;;;;25.62;59.49;101790.34;4993476;28;46374;-72
2021/07/19 07:27:54;;;;;;;;;10.25;9.75;;;;;25.75;59.30;101792.84;4993736;28;45477;-71
2021/07/19 07:30:20;;;;;;;;;11.25;9.50;;;;;25.90;58.95;101790.59;4994073;28;45498;-71
2021/07/19 07:32:46;;;;;;;;;11.00;9.00;;;;;26.10;58.30;101783.34;4994196;28;46915;-71
2021/07/19 07:35:13;;;;;;;;;11.00;10.25;;;;;26.32;58.06;101785.78;4992899;28;47329;-71
2021/07/19 07:37:39;;;;;;;;;11.00;10.00;;;;;26.64;57.83;101787.31;4993634;28;45368;-71
2021/07/19 07:40:08;;;;;;;;;14.25;10.00;;;;;26.76;57.15;101773.50;4994277;28;45271;-71
2021/07/19 07:42:34;;;;;;;;;12.25;11.50;;;;;27.39;57.15;101785.50;4978605;28;45939;-71
2021/07/19 07:44:59;;;;;;;;;11.00;8.75;;;;;27.95;55.12;101779.06;4994286;28;46360;-71
2021/07/19 07:47:26;;;;;;;;;11.25;10.25;;;;;27.99;54.78;101778.63;4993317;28;45427;-71
2021/07/19 07:49:51;;;;;;;;;12.50;9.50;;;;;28.12;54.25;101786.31;4993936;28;45449;-71
2021/07/19 07:52:18;;;;;;;;;7.00;7.00;;;;;28.51;54.26;101786.03;4993383;28;45530;-71
2021/07/19 07:54:44;;;;;;;;;13.00;12.00;;;;;29.09;52.94;101779.97;4994046;28;46360;-71
2021/07/19 07:57:09;;;;;;;;;38.75;31.25;;;;;29.54;51.81;101786.94;4996646;28;45384;-71
2021/07/19 07:59:36;;;;;;;;;15.25;11.75;;;;;30.51;50.96;101785.41;4997745;28;45428;-71
2021/07/19 08:02:03;;;;;;;;;10.25;9.25;;;;;31.88;48.78;101779.69;4996501;28;45495;-71
2021/07/19 08:04:28;;;;;;;;;12.00;10.50;;;;;33.27;46.81;101778.38;4996382;28;47545;-72
2021/07/19 08:06:55;;;;;;;;;10.00;8.75;;;;;34.87;45.08;101781.63;4996862;28;45552;-71
2021/07/19 08:09:20;;;;;;;;;7.75;7.50;;;;;35.97;43.23;101776.03;4996983;28;47041;-71
2021/07/19 08:11:46;;;;;;;;;6.50;6.50;;;;;36.89;41.18;101784.41;4997451;28;45346;-71
2021/07/19 08:14:11;;;;;;;;;9.25;6.50;;;;;38.41;38.75;101793.78;4996686;28;45500;-72
2021/07/19 08:16:39;;;;;;;;;10.50;7.50;;;;;39.58;37.18;101770.69;4996189;28;45382;-72
2021/07/19 08:19:06;;;;;;;;;6.75;6.75;;;;;40.97;35.30;101773.03;4996259;28;45570;-71
2021/07/19 08:21:32;;;;;;;;;7.75;7.00;;;;;41.68;34.23;101777.22;4984901;28;45486;-71
2021/07/19 08:23:58;;;;;;;;;6.00;5.25;;;;;41.27;32.84;101780.28;4996764;28;45409;-71
2021/07/19 08:26:23;;;;;;;;;9.25;6.25;;;;;40.28;32.30;101782.97;4996373;28;45677;-72
2021/07/19 08:28:49;;;;;;;;;7.75;6.00;;;;;40.00;33.36;101787.22;4997905;28;47187;-72
2021/07/19 08:31:14;;;;;;;;;8.00;5.75;;;;;40.07;33.21;101763.19;4997308;28;45499;-71
2021/07/19 08:33:39;;;;;;;;;6.00;5.50;;;;;41.61;31.66;101770.16;4997463;28;45822;-71
2021/07/19 08:36:05;;;;;;;;;8.00;8.00;;;;;43.24;30.33;101770.81;4996730;28;45721;-72
2021/07/19 08:38:31;;;;;;;;;9.25;7.00;;;;;43.90;29.22;101765.13;4999524;28;45799;-72
2021/07/19 08:40:57;;;;;;;;;7.00;6.25;;;;;43.99;28.98;101771.03;4998134;28;45519;-71
2021/07/19 08:43:22;;;;;;;;;6.75;5.75;;;;;44.88;28.62;101774.97;4997425;28;45693;-71
2021/07/19 08:45:48;;;;;;;;;9.25;6.00;;;;;45.52;26.85;101774.63;4998463;28;45591;-71
2021/07/19 08:48:13;;;;;;;;;9.50;6.75;;;;;45.64;26.17;101777.19;4997663;28;45420;-72
2021/07/19 08:50:38;;;;;;;;;9.00;5.25;;;;;44.55;25.96;101771.44;4997447;28;45454;-71
2021/07/19 08:53:04;;;;;;;;;7.75;6.75;;;;;44.62;26.72;101777.59;4997063;28;46277;-71
2021/07/19 08:55:30;;;;;;;;;5.00;5.00;;;;;46.02;25.98;101776.66;4997658;28;45754;-71
2021/07/19 08:57:59;;;;;;;;;6.50;6.25;;;;;47.56;25.09;101768.63;5005476;28;45632;-71
2021/07/19 09:00:25;;;;;;;;;6.25;6.25;;;;;48.34;23.30;101765.72;4995350;28;45430;-71
2021/07/19 09:02:50;;;;;;;;;7.25;5.25;;;;;48.41;23.48;101761.81;4995862;28;46619;-71
2021/07/19 09:05:15;;;;;;;;;32.00;29.50;;;;;48.14;23.19;101773.47;4995553;28;45336;-72
2021/07/19 09:07:41;;;;;;;;;4.25;4.00;;;;;47.38;23.52;101769.31;4994509;28;45491;-71
2021/07/19 09:10:09;;;;;;;;;10.00;6.00;;;;;46.62;23.35;101770.47;4995844;28;45425;-72
2021/07/19 09:12:37;;;;;;;;;7.25;6.00;;;;;46.14;23.83;101770.81;4995259;28;47296;-72
2021/07/19 09:15:04;;;;;;;;;8.00;7.00;;;;;45.80;23.79;101759.44;4996463;28;45556;-72
2021/07/19 09:17:30;;;;;;;;;7.75;5.00;;;;;45.37;23.58;101766.25;4995957;28;45440;-72
2021/07/19 09:19:57;;;;;;;;;6.25;5.25;;;;;44.92;23.96;101757.50;4995655;28;45473;-71
2021/07/19 09:22:31;;;;;;;;;3.75;3.75;;;;;44.68;24.36;101759.88;4995177;28;47436;-71
2021/07/19 09:25:16;;;;;;;;;4.25;4.25;;;;;44.48;24.23;101757.84;4996043;28;45498;-71
2021/07/19 09:27:57;;;;;;;;;4.75;4.75;;;;;43.91;24.50;101761.28;4981550;28;45536;-71
2021/07/19 09:30:27;;;;;;;;;3.50;3.50;;;;;43.43;24.60;101760.22;4995459;28;45356;-72
2021/07/19 09:32:55;;;;;;;;;4.25;4.25;;;;;43.11;25.08;101767.59;4995645;28;46220;-72
2021/07/19 09:35:21;;;;;;;;;3.25;3.25;;;;;42.68;25.50;101761.78;4995354;28;45598;-72
2021/07/19 09:37:46;;;;;;;;;6.00;4.00;;;;;42.20;25.24;101774.31;4995458;28;45452;-71
2021/07/19 09:40:13;;;;;;;;;4.25;4.25;;;;;41.83;25.08;101770.34;4995827;28;45440;-71
2021/07/19 09:42:42;;;;;;;;;6.75;6.25;;;;;41.60;26.17;101769.34;4995080;28;46389;-72
2021/07/19 09:45:08;;;;;;;;;5.75;4.25;;;;;41.35;25.91;101766.09;4995366;28;45707;-71
2021/07/19 09:47:37;;;;;;;;;5.25;5.00;;;;;40.99;25.99;101765.38;4995864;28;45635;-71
2021/07/19 09:50:22;;;;;;;;;8.50;6.25;;;;;40.41;26.55;101747.78;4995336;28;45450;-71
2021/07/19 09:52:48;;;;;;;;;6.50;6.25;;;;;40.14;27.79;101750.16;4994615;28;45633;-71
2021/07/19 09:55:21;;;;;;;;;8.00;6.25;;;;;39.96;27.06;101752.97;4994698;28;45345;-72
2021/07/19 09:57:57;;;;;;;;;7.25;4.75;;;;;39.59;27.48;101755.03;4994966;28;45769;-71
2021/07/19 10:00:24;;;;;;;;;5.00;4.50;;;;;39.45;27.82;101751.59;4995164;28;45230;-71
2021/07/19 10:02:52;;;;;;;;;8.50;5.50;;;;;39.29;28.33;101741.25;4995271;28;46605;-72
2021/07/19 10:05:29;;;;;;;;;8.25;6.00;;;;;39.12;28.26;101738.28;4970444;28;46889;-70
2021/07/19 10:07:56;;;;;;;;;8.00;5.00;;;;;38.96;28.87;101748.00;4994733;28;45598;-71
2021/07/19 10:10:41;;;;;;;;;8.00;8.00;;;;;38.83;28.83;101743.50;4994946;28;45339;-71
2021/07/19 10:13:08;;;;;;;;;8.00;6.25;;;;;38.70;29.49;101746.38;4994511;28;45626;-71
2021/07/19 10:15:36;;;;;;;;;6.75;5.25;;;;;38.63;29.34;101737.34;4995162;28;45501;-70
2021/07/19 10:18:11;;;;;;;;;7.75;6.00;;;;;38.56;29.26;101740.16;4996159;28;46971;-70
2021/07/19 10:20:39;;;;;;;;;7.25;7.00;;;;;38.30;29.49;101744.03;4995030;28;45520;-70
2021/07/19 10:23:05;;;;;;;;;7.00;6.00;;;;;38.00;29.72;101732.84;4991878;28;45514;-70
2021/07/19 10:25:32;;;;;;;;;9.00;5.25;;;;;37.82;30.35;101730.03;4995042;28;45628;-70
2021/07/19 10:27:58;;;;;;;;;7.00;5.75;;;;;37.73;30.45;101728.59;4994754;28;45424;-70
2021/07/19 10:30:23;;;;;;;;;6.00;5.75;;;;;37.76;30.20;101737.22;4995031;28;45390;-70
2021/07/19 10:32:49;;;;;;;;;9.00;7.75;;;;;37.76;30.80;101741.88;4995440;28;45318;-70
2021/07/19 10:35:15;;;;;;;;;6.75;5.75;;;;;37.59;30.51;101736.94;4994616;28;45669;-70
2021/07/19 10:37:44;;;;;;;;;6.00;6.00;;;;;37.42;30.62;101740.41;4999574;28;45393;-70
2021/07/19 10:40:13;;;;;;;;;4.50;4.50;;;;;37.29;30.94;101730.34;4994847;28;45320;-72
2021/07/19 10:42:47;;;;;;;;;9.50;8.00;;;;;37.14;30.69;101727.88;4990969;28;47538;-71
2021/07/19 10:45:15;;;;;;;;;6.25;5.00;;;;;36.99;30.98;101716.34;4992998;28;45462;-70
2021/07/19 10:47:54;;;;;;;;;5.25;3.75;;;;;36.98;31.50;101726.47;4993419;28;45439;-70
2021/07/19 10:50:23;;;;;;;;;5.50;5.50;;;;;36.91;30.96;101714.69;4994143;28;45491;-69
2021/07/19 10:52:49;;;;;;;;;7.75;6.25;;;;;36.84;31.33;101716.56;4993999;28;47269;-71
2021/07/19 10:55:32;;;;;;;;;8.50;7.25;;;;;36.79;31.60;101730.06;4994016;28;45582;-70
2021/07/19 10:58:06;;;;;;;;;6.75;4.75;;;;;36.70;31.32;101724.00;4994693;28;45322;-69
2021/07/19 11:00:41;;;;;;;;;8.25;8.25;;;;;36.53;31.26;101728.25;4985248;28;45423;-70
2021/07/19 11:03:11;;;;;;;;;6.00;6.00;;;;;36.35;31.63;101711.63;4988910;28;46388;-70
2021/07/19 11:05:40;;;;;;;;;7.75;6.25;;;;;36.12;31.71;101709.31;4991205;28;45577;-70
2021/07/19 11:08:07;;;;;;;;;6.00;6.00;;;;;35.98;31.94;101717.53;4990530;28;45605;-70
2021/07/19 11:10:45;;;;;;;;;7.25;6.25;;;;;35.83;32.11;101710.53;4989103;28;45521;-70
2021/07/19 11:13:10;;;;;;;;;8.25;5.25;;;;;35.79;32.16;101707.38;4990168;28;45435;-70
2021/07/19 11:15:38;;;;;;;;;8.75;7.75;;;;;35.67;32.38;101695.38;4989774;28;45721;-70
2021/07/19 11:18:18;;;;;;;;;9.50;7.00;;;;;35.62;31.83;101697.91;4991334;28;45495;-71
2021/07/19 11:20:46;;;;;;;;;6.25;5.00;;;;;35.60;32.76;101706.28;4991730;28;45547;-70